Briefing drone pour Vif

Rechercher une autre localisation

Conditions de vol :


Nous sommes le : Mercredi 08 février 2023
Il est 22:34 UTC (23:34 LT)

Lever de soleil : 06:22 UTC (07:22 LT)
Coucher de soleil : 17:20 UTC (18:20 LT)

Météo

L'essentiel des conditions de vol

VIGILANCE MÉTÉO FRANCE - Isère (38)
Pas de vigilances particulieres
METAR de LFLS
LFLS 082230Z AUTO 08007KT CAVOK M04/M06 Q1031

Date d'émission: 08/02/2023
Heure d'émission: 22:30 UTC
Vent: 080° pour 7 KT (13 km/h)
Visibilité horizontale: > 10 km
Plafond : Plafond et visibilité OK (CAVOK)
Température: -4 °C
Point de rosée: -6 °C
Humidité: 86%
Pression (QNH): 1031 hPa
TAF de LFLS
LFLS 082014Z 0820/0915 CNL

Conditions prévues :

Heure d'émission : Bulletin éffectué le 08 à 20:00 UTC
Prévision : Valide du 08 a 20:00 UTC au 09 a 15:00 UTC
Nuages : à 0ft (0 m)
WEBCAM POUR VIF

Réglementation

Voler en sécurité

CARTES AERONAUTIQUE 1/500.000
CARTE AZBA (Reseau basse altitude)
CARTES VAC (LFLS)
SUP AIP




Chargement des AIP...
NOTAM (VIF + Terrain à proximité / FIR )




Chargement des NOTAMS...
CONTACT PREFECTURE 38
Isère (38) : [email protected]


Avertissement : Les données mises à disposition sont indicatives. Oxygène Drone ne pourra être tenu responsable de dégâts causés aux biens et aux personnes.